Time;durP1;ratioP1;P1;durP2;ratioP2;P2;SDS_P1;SDS_P2;PMS_P1;PMS_P2;Temp;Humidity;BMP_temperature;BMP_pressure;BME280_temperature;BME280_humidity;BME280_pressure;Samples;Min_cycle;Max_cycle;Signal;HPM_P1;HPM_P2
2021/06/09 00:01:22;;;;;;;8.65;5.00;;;19.90;54.90;;;;;;4960127;28;20024;-72
2021/06/09 00:03:48;;;;;;;9.10;5.07;;;19.90;53.80;;;;;;4960208;28;20490;-72
2021/06/09 00:06:14;;;;;;;9.18;4.90;;;19.80;53.90;;;;;;4959914;28;20074;-72
2021/06/09 00:08:39;;;;;;;8.60;4.80;;;19.80;53.70;;;;;;4960169;28;20035;-72
2021/06/09 00:11:05;;;;;;;7.35;4.90;;;19.80;54.20;;;;;;4960083;28;20078;-72
2021/06/09 00:13:32;;;;;;;10.15;4.88;;;19.70;54.00;;;;;;4960065;28;20031;-72
2021/06/09 00:16:01;;;;;;;9.95;5.25;;;19.80;54.00;;;;;;4959645;28;20035;-72
2021/06/09 00:18:27;;;;;;;7.40;5.28;;;19.70;54.00;;;;;;4959805;29;20422;-72
2021/06/09 00:20:53;;;;;;;7.43;4.90;;;19.70;53.20;;;;;;4959581;28;20046;-72
2021/06/09 00:23:25;;;;;;;8.02;4.82;;;19.70;52.90;;;;;;4959959;28;20035;-72
2021/06/09 00:25:52;;;;;;;9.23;5.07;;;19.60;53.30;;;;;;4959400;28;20057;-72
2021/06/09 00:28:19;;;;;;;8.60;5.32;;;19.60;54.00;;;;;;4956751;29;20050;-72
2021/06/09 00:30:45;;;;;;;9.82;5.40;;;19.50;53.10;;;;;;4954956;29;20031;-72
2021/06/09 00:33:11;;;;;;;8.93;5.63;;;19.50;54.10;;;;;;4959691;28;20037;-72
2021/06/09 00:35:37;;;;;;;8.95;5.38;;;19.60;55.00;;;;;;4959430;28;20110;-72
2021/06/09 00:38:04;;;;;;;10.70;6.18;;;19.50;56.70;;;;;;4956688;29;20094;-73
2021/06/09 00:40:32;;;;;;;12.07;5.63;;;19.40;55.70;;;;;;4953582;29;20043;-72
2021/06/09 00:43:18;;;;;;;10.10;7.00;;;19.40;56.50;;;;;;4959597;28;20106;-72
2021/06/09 00:45:55;;;;;;;10.77;7.13;;;19.40;55.20;;;;;;4959263;28;20050;-72
2021/06/09 00:48:25;;;;;;;11.00;7.40;;;19.30;55.50;;;;;;4958405;28;20074;-72
2021/06/09 00:50:53;;;;;;;12.48;7.82;;;19.30;56.50;;;;;;4959450;28;20389;-72
2021/06/09 00:53:28;;;;;;;16.05;9.13;;;19.30;56.00;;;;;;4959413;28;20065;-72
2021/06/09 00:55:59;;;;;;;13.40;8.43;;;19.30;56.20;;;;;;4958639;29;20027;-72
2021/06/09 00:58:26;;;;;;;13.18;8.25;;;19.30;56.50;;;;;;4959341;28;20015;-73
2021/06/09 01:00:53;;;;;;;12.80;9.20;;;19.20;55.30;;;;;;4950057;28;20031;-72
2021/06/09 01:03:19;;;;;;;16.75;10.73;;;19.20;56.70;;;;;;4956032;29;20114;-72
2021/06/09 01:05:45;;;;;;;17.60;11.75;;;19.10;57.90;;;;;;4959149;29;20059;-72
2021/06/09 01:08:13;;;;;;;13.20;9.75;;;19.10;57.70;;;;;;4959048;28;20039;-72
2021/06/09 01:10:39;;;;;;;13.05;9.60;;;19.10;56.10;;;;;;4959412;28;20031;-72
2021/06/09 01:13:05;;;;;;;14.43;9.77;;;19.00;55.20;;;;;;4959153;28;20023;-72
2021/06/09 01:15:31;;;;;;;13.50;8.85;;;19.00;57.30;;;;;;4959237;28;20146;-72
2021/06/09 01:17:58;;;;;;;14.73;10.07;;;18.90;56.50;;;;;;4958801;28;20034;-72
2021/06/09 01:20:25;;;;;;;16.73;9.65;;;18.90;57.20;;;;;;4959273;28;20023;-72
2021/06/09 01:22:52;;;;;;;14.50;9.70;;;18.90;57.20;;;;;;4958685;28;20024;-72
2021/06/09 01:25:21;;;;;;;15.45;8.80;;;18.80;58.10;;;;;;4959244;28;20027;-73
2021/06/09 01:27:51;;;;;;;14.20;9.52;;;18.80;58.00;;;;;;4957621;29;20091;-73
2021/06/09 01:30:19;;;;;;;12.00;8.35;;;18.70;59.80;;;;;;4953093;28;20099;-73
2021/06/09 01:32:46;;;;;;;12.35;9.15;;;18.70;59.30;;;;;;4958875;28;20085;-72
2021/06/09 01:35:12;;;;;;;12.40;8.68;;;18.60;59.40;;;;;;4959203;28;20019;-72
2021/06/09 01:37:38;;;;;;;12.95;9.18;;;18.60;60.00;;;;;;4958443;29;20050;-72
2021/06/09 01:40:08;;;;;;;13.40;8.50;;;18.60;57.80;;;;;;4948277;28;20035;-72
2021/06/09 01:42:35;;;;;;;11.32;7.78;;;18.60;57.40;;;;;;4945949;28;20553;-73
2021/06/09 01:45:01;;;;;;;12.15;8.55;;;18.60;57.50;;;;;;4959051;28;20027;-72
2021/06/09 01:47:27;;;;;;;13.88;8.80;;;18.60;57.80;;;;;;4957120;29;20034;-72
2021/06/09 01:49:52;;;;;;;12.18;8.85;;;18.60;58.80;;;;;;4957676;28;20082;-72
2021/06/09 01:52:19;;;;;;;12.45;8.25;;;18.60;57.40;;;;;;4958912;28;20059;-72
2021/06/09 01:54:46;;;;;;;12.82;8.25;;;18.50;57.80;;;;;;4958629;28;20030;-72
2021/06/09 01:57:16;;;;;;;11.18;8.23;;;18.50;56.80;;;;;;4958850;28;20039;-72
2021/06/09 01:59:43;;;;;;;13.48;8.77;;;18.50;56.80;;;;;;4958876;28;20031;-72
2021/06/09 02:02:11;;;;;;;13.98;9.07;;;18.50;57.60;;;;;;4958996;28;20374;-72
2021/06/09 02:04:41;;;;;;;12.95;8.98;;;18.50;59.30;;;;;;4958636;28;20123;-72
2021/06/09 02:07:07;;;;;;;14.13;8.65;;;18.50;59.90;;;;;;4961180;28;20027;-72
2021/06/09 02:09:35;;;;;;;15.02;9.43;;;18.40;59.50;;;;;;4962097;28;20426;-72
2021/06/09 02:12:02;;;;;;;12.23;8.15;;;18.40;59.30;;;;;;4962415;28;20113;-72
2021/06/09 02:14:28;;;;;;;14.13;9.32;;;18.40;58.40;;;;;;4962259;28;20027;-72
2021/06/09 02:16:54;;;;;;;13.52;9.30;;;18.40;59.40;;;;;;4961989;29;20031;-72
2021/06/09 02:19:23;;;;;;;15.00;9.50;;;18.40;58.40;;;;;;4961907;29;20019;-72
2021/06/09 02:21:51;;;;;;;14.88;9.52;;;18.40;59.10;;;;;;4961635;28;20024;-72
2021/06/09 02:24:17;;;;;;;16.40;8.90;;;18.40;58.80;;;;;;4960070;28;20043;-72
2021/06/09 02:26:44;;;;;;;13.65;8.02;;;18.30;57.10;;;;;;4951237;29;20059;-72
2021/06/09 02:29:12;;;;;;;12.50;8.25;;;18.30;58.10;;;;;;4955441;28;20031;-72
2021/06/09 02:31:48;;;;;;;13.75;9.40;;;18.30;58.80;;;;;;4961874;28;20483;-72
2021/06/09 02:34:17;;;;;;;14.40;10.00;;;18.30;60.40;;;;;;4961593;28;20437;-72
2021/06/09 02:36:43;;;;;;;15.30;9.98;;;18.20;58.40;;;;;;4961818;28;20059;-73
2021/06/09 02:39:11;;;;;;;14.10;9.48;;;18.20;59.40;;;;;;4954308;28;20023;-72
2021/06/09 02:41:37;;;;;;;14.18;9.65;;;18.20;59.40;;;;;;4961803;28;20051;-72
2021/06/09 02:44:06;;;;;;;17.00;10.65;;;18.10;61.50;;;;;;4961442;28;20035;-72
2021/06/09 02:46:37;;;;;;;15.57;9.32;;;18.00;61.50;;;;;;4961602;28;20038;-72
2021/06/09 02:49:08;;;;;;;16.42;9.90;;;18.00;60.20;;;;;;4954981;28;20027;-72
2021/06/09 02:51:44;;;;;;;14.30;8.48;;;18.00;61.50;;;;;;4954885;29;20055;-72
2021/06/09 02:54:41;;;;;;;13.90;9.32;;;18.00;61.70;;;;;;4949734;29;20102;-72
2021/06/09 02:57:40;;;;;;;15.85;10.10;;;17.90;61.20;;;;;;4961172;28;20110;-72
2021/06/09 03:00:16;;;;;;;15.18;9.38;;;17.90;62.00;;;;;;4961235;28;20513;-72
2021/06/09 03:02:50;;;;;;;12.48;8.80;;;17.90;61.40;;;;;;4961261;28;20455;-72
2021/06/09 03:05:33;;;;;;;17.27;9.68;;;18.00;60.70;;;;;;4961147;28;20027;-72
2021/06/09 03:08:05;;;;;;;;;;;17.90;61.40;;;;;;4961740;28;20418;-72
2021/06/09 03:10:52;;;;;;;16.45;9.13;;;17.90;60.20;;;;;;4961109;28;19914;-72
2021/06/09 03:13:28;;;;;;;16.00;9.68;;;17.90;61.90;;;;;;4961203;28;20033;-73
2021/06/09 03:16:11;;;;;;;14.55;8.85;;;17.80;62.20;;;;;;4948008;28;20032;-72
2021/06/09 03:18:41;;;;;;;;;;;17.80;60.80;;;;;;4960762;28;20023;-73
2021/06/09 03:21:16;;;;;;;14.00;9.05;;;17.80;60.50;;;;;;4960506;28;19930;-72
2021/06/09 03:24:07;;;;;;;14.30;9.20;;;17.80;61.30;;;;;;4960908;28;20024;-72
2021/06/09 03:26:51;;;;;;;14.70;9.63;;;17.80;60.50;;;;;;4948668;29;20391;-73
2021/06/09 03:29:20;;;;;;;12.40;7.80;;;17.80;59.70;;;;;;4954797;28;20035;-72
2021/06/09 03:31:51;;;;;;;13.77;8.60;;;17.80;59.60;;;;;;4960830;29;20019;-72
2021/06/09 03:34:22;;;;;;;12.77;8.27;;;17.80;58.70;;;;;;4960691;28;20035;-72
2021/06/09 03:36:50;;;;;;;14.77;9.05;;;17.70;60.30;;;;;;4960473;28;20453;-72
2021/06/09 03:39:20;;;;;;;13.10;8.60;;;17.70;59.10;;;;;;4953920;28;20031;-72
2021/06/09 03:41:58;;;;;;;12.73;7.82;;;17.70;58.40;;;;;;4960673;28;20026;-72
2021/06/09 03:44:27;;;;;;;13.40;9.77;;;17.70;58.10;;;;;;4949409;29;20019;-72
2021/06/09 03:46:56;;;;;;;13.93;8.55;;;17.70;60.00;;;;;;4960130;29;20027;-72
2021/06/09 03:49:24;;;;;;;15.38;9.32;;;17.70;59.60;;;;;;4959711;28;20031;-72
2021/06/09 03:51:51;;;;;;;14.85;9.25;;;17.60;59.80;;;;;;4960011;29;20031;-72
2021/06/09 03:54:19;;;;;;;16.77;10.00;;;17.60;60.20;;;;;;4960308;28;20114;-72
2021/06/09 03:56:47;;;;;;;15.65;9.77;;;17.60;59.80;;;;;;4960121;28;20031;-72
2021/06/09 03:59:14;;;;;;;14.27;9.48;;;17.50;60.30;;;;;;4960252;28;20499;-72
2021/06/09 04:01:42;;;;;;;13.18;9.07;;;17.50;60.90;;;;;;4960072;28;20023;-72
2021/06/09 04:04:15;;;;;;;16.52;10.13;;;17.40;61.40;;;;;;4960291;28;20046;-72
2021/06/09 04:06:44;;;;;;;14.55;9.55;;;17.40;59.00;;;;;;4959877;28;20027;-72
2021/06/09 04:09:15;;;;;;;16.25;10.48;;;17.40;59.70;;;;;;4960018;28;20553;-73
2021/06/09 04:11:42;;;;;;;16.08;10.40;;;17.20;63.40;;;;;;4947669;29;20027;-72
2021/06/09 04:14:10;;;;;;;15.50;10.55;;;17.20;61.90;;;;;;4947007;28;20402;-72
2021/06/09 04:16:37;;;;;;;15.00;8.60;;;17.20;62.40;;;;;;4959978;28;20110;-72
2021/06/09 04:19:08;;;;;;;17.73;10.35;;;17.20;61.00;;;;;;4959800;28;20046;-72
2021/06/09 04:21:34;;;;;;;16.20;9.60;;;17.20;63.40;;;;;;4959787;28;20035;-73
2021/06/09 04:23:59;;;;;;;14.82;9.20;;;17.10;61.00;;;;;;4959767;28;20023;-73
2021/06/09 04:26:27;;;;;;;12.77;9.27;;;17.10;61.00;;;;;;4959995;28;20039;-72
2021/06/09 04:28:55;;;;;;;14.85;9.15;;;17.10;59.70;;;;;;4953238;28;20079;-73
2021/06/09 04:31:21;;;;;;;16.80;10.13;;;17.10;61.00;;;;;;4947005;29;20023;-73
2021/06/09 04:33:54;;;;;;;15.20;10.02;;;17.10;60.40;;;;;;4959689;28;20024;-72
2021/06/09 04:36:20;;;;;;;17.88;11.07;;;17.00;61.80;;;;;;4959616;28;20390;-72
2021/06/09 04:38:46;;;;;;;18.00;11.27;;;16.90;63.10;;;;;;4952461;29;20023;-73
2021/06/09 04:41:12;;;;;;;16.90;10.45;;;17.00;61.80;;;;;;4959456;28;20058;-72
2021/06/09 04:43:39;;;;;;;17.75;10.90;;;16.90;61.90;;;;;;4959547;28;20071;-72
2021/06/09 04:46:04;;;;;;;18.17;11.40;;;16.90;61.60;;;;;;4959375;28;20506;-72
2021/06/09 04:48:31;;;;;;;15.65;10.75;;;16.80;63.10;;;;;;4957013;29;20097;-72
2021/06/09 04:50:56;;;;;;;15.25;11.10;;;16.90;61.00;;;;;;4959280;29;20078;-72
2021/06/09 04:53:22;;;;;;;15.43;10.20;;;16.80;61.50;;;;;;4959383;28;20027;-72
2021/06/09 04:55:50;;;;;;;17.50;11.65;;;16.80;61.80;;;;;;4959252;28;20122;-73
2021/06/09 04:58:18;;;;;;;19.02;11.35;;;16.80;61.80;;;;;;4959424;28;21841;-72
2021/06/09 05:00:46;;;;;;;16.42;10.88;;;16.80;61.30;;;;;;4956586;28;20024;-72
2021/06/09 05:03:12;;;;;;;17.83;11.50;;;16.80;62.30;;;;;;4959419;28;20031;-72
2021/06/09 05:05:38;;;;;;;19.73;11.82;;;16.80;62.00;;;;;;4959296;28;20028;-72
2021/06/09 05:08:05;;;;;;;19.02;11.27;;;16.70;62.40;;;;;;4959152;28;20055;-74
2021/06/09 05:10:33;;;;;;;20.42;11.75;;;16.70;64.00;;;;;;4956169;28;20115;-73
2021/06/09 05:13:16;;;;;;;21.88;13.13;;;16.70;63.70;;;;;;4947020;28;20063;-78
2021/06/09 05:15:46;;;;;;;21.45;11.65;;;16.70;63.30;;;;;;4949162;29;21943;-75
2021/06/09 05:18:24;;;;;;;15.52;10.93;;;16.70;62.60;;;;;;4949220;29;20027;-75
2021/06/09 05:20:51;;;;;;;17.85;11.38;;;16.70;63.30;;;;;;4948576;29;20406;-73
2021/06/09 05:23:45;;;;;;;18.67;11.90;;;16.70;62.10;;;;;;4959508;29;20032;-77
2021/06/09 05:26:13;;;;;;;21.08;13.32;;;16.70;63.60;;;;;;4956358;29;20422;-82
2021/06/09 05:28:47;;;;;;;17.38;11.50;;;16.70;62.80;;;;;;4954608;28;20423;-78
2021/06/09 05:31:14;;;;;;;22.13;14.10;;;16.70;63.20;;;;;;4956583;29;20406;-81
2021/06/09 05:33:42;;;;;;;18.35;12.98;;;16.70;63.90;;;;;;4959058;28;20143;-77
2021/06/09 05:36:08;;;;;;;19.90;12.93;;;16.70;63.00;;;;;;4958749;28;20037;-77
2021/06/09 05:38:34;;;;;;;24.50;15.45;;;16.70;64.40;;;;;;4952161;28;20020;-77
2021/06/09 05:41:01;;;;;;;19.02;12.38;;;16.70;64.90;;;;;;4959587;28;20047;-78
2021/06/09 05:43:29;;;;;;;19.58;13.25;;;16.70;63.50;;;;;;4951430;29;20430;-72
2021/06/09 05:45:56;;;;;;;18.13;12.13;;;16.70;64.70;;;;;;4952332;28;20101;-76
2021/06/09 05:48:22;;;;;;;20.73;13.65;;;16.70;63.70;;;;;;4954919;29;20044;-81
2021/06/09 05:50:53;;;;;;;25.98;14.00;;;16.70;64.30;;;;;;4962713;28;20027;-79
2021/06/09 05:53:22;;;;;;;21.80;13.98;;;16.70;65.30;;;;;;4962472;28;20104;-76
2021/06/09 05:55:48;;;;;;;21.05;12.68;;;16.70;63.80;;;;;;4962502;28;20134;-78
2021/06/09 05:58:19;;;;;;;18.63;11.77;;;16.70;62.40;;;;;;4960415;29;20679;-78
2021/06/09 06:00:50;;;;;;;19.77;13.40;;;16.80;61.70;;;;;;4961349;28;20027;-77
2021/06/09 06:03:16;;;;;;;23.65;15.10;;;16.80;62.80;;;;;;4961038;29;20552;-78
2021/06/09 06:05:43;;;;;;;20.83;14.27;;;16.80;63.20;;;;;;4962305;28;20031;-75
2021/06/09 06:08:09;;;;;;;20.83;13.30;;;16.90;63.70;;;;;;4961020;29;20018;-76
2021/06/09 06:10:36;;;;;;;21.20;14.85;;;16.90;63.00;;;;;;4960898;29;20027;-78
2021/06/09 06:13:02;;;;;;;21.50;14.88;;;16.90;64.40;;;;;;4962134;28;20066;-74
2021/06/09 06:15:29;;;;;;;28.80;18.95;;;17.00;64.50;;;;;;4962105;28;20027;-73
2021/06/09 06:17:55;;;;;;;23.48;15.98;;;16.90;63.70;;;;;;4961928;28;20012;-74
2021/06/09 06:20:22;;;;;;;21.50;14.05;;;17.00;64.70;;;;;;4962190;28;20038;-74
2021/06/09 06:22:50;;;;;;;21.65;14.55;;;17.00;64.40;;;;;;4961413;28;20513;-74
2021/06/09 06:25:18;;;;;;;21.88;13.43;;;17.00;65.00;;;;;;4962134;28;20027;-74
2021/06/09 06:27:48;;;;;;;24.67;14.75;;;17.10;66.10;;;;;;4961636;28;20023;-74
2021/06/09 06:30:15;;;;;;;21.25;13.55;;;17.00;67.00;;;;;;4955861;28;20023;-74
2021/06/09 06:32:42;;;;;;;19.58;13.02;;;17.00;65.80;;;;;;4961609;28;20098;-74
2021/06/09 06:35:13;;;;;;;20.63;12.20;;;17.10;65.00;;;;;;4961861;28;20036;-74
2021/06/09 06:37:41;;;;;;;15.35;11.55;;;17.10;64.80;;;;;;4961287;28;20023;-74
2021/06/09 06:40:08;;;;;;;16.40;11.90;;;17.20;64.90;;;;;;4954540;28;20075;-73
2021/06/09 06:42:34;;;;;;;19.73;11.95;;;17.30;64.00;;;;;;4961428;28;20026;-73
2021/06/09 06:45:04;;;;;;;21.77;14.43;;;17.30;65.50;;;;;;4961566;29;20458;-74
2021/06/09 06:47:30;;;;;;;18.67;12.80;;;17.40;65.80;;;;;;4955510;28;20020;-74
2021/06/09 06:49:58;;;;;;;17.33;12.27;;;17.50;64.70;;;;;;4955767;29;20040;-73
2021/06/09 06:52:30;;;;;;;18.58;12.20;;;17.80;64.80;;;;;;4960305;28;20102;-75
2021/06/09 06:55:04;;;;;;;18.33;12.00;;;18.00;65.00;;;;;;4960718;28;20363;-72
2021/06/09 06:57:31;;;;;;;19.58;13.23;;;18.20;64.40;;;;;;4960981;28;20114;-73
2021/06/09 07:00:00;;;;;;;16.05;11.85;;;18.50;64.40;;;;;;4958973;29;20042;-75
2021/06/09 07:02:26;;;;;;;17.58;12.43;;;19.00;64.70;;;;;;4958971;28;20086;-76
2021/06/09 07:04:53;;;;;;;16.10;11.13;;;19.40;64.90;;;;;;4947912;29;20031;-75
2021/06/09 07:07:19;;;;;;;17.33;11.68;;;19.90;64.90;;;;;;4949562;29;20091;-75
2021/06/09 07:09:45;;;;;;;16.90;11.73;;;20.50;65.20;;;;;;4956840;29;20030;-76
2021/06/09 07:12:15;;;;;;;15.20;11.63;;;21.00;64.30;;;;;;4959829;29;20475;-76
2021/06/09 07:14:42;;;;;;;23.10;16.63;;;21.50;64.30;;;;;;4948675;28;20034;-75
2021/06/09 07:17:10;;;;;;;16.77;11.65;;;22.00;64.30;;;;;;4960406;29;20038;-77
2021/06/09 07:19:37;;;;;;;14.70;10.43;;;22.50;63.60;;;;;;4939564;28;20054;-78
2021/06/09 07:22:06;;;;;;;14.02;9.88;;;22.90;60.20;;;;;;4959075;29;20094;-74
2021/06/09 07:24:32;;;;;;;11.18;9.23;;;23.30;60.40;;;;;;4960535;29;20039;-75
2021/06/09 07:26:59;;;;;;;12.25;9.52;;;23.60;59.70;;;;;;4960677;28;20030;-75
2021/06/09 07:29:27;;;;;;;13.32;9.68;;;23.90;58.00;;;;;;4954430;28;20031;-75
2021/06/09 07:31:54;;;;;;;11.48;8.65;;;24.20;59.30;;;;;;4960567;28;20079;-75
2021/06/09 07:34:20;;;;;;;13.57;9.85;;;24.60;59.90;;;;;;4960548;28;20390;-74
2021/06/09 07:36:53;;;;;;;12.70;8.85;;;24.90;57.40;;;;;;4960480;28;20035;-74
2021/06/09 07:39:40;;;;;;;11.32;8.55;;;25.20;56.30;;;;;;4952162;29;20059;-76
2021/06/09 07:42:11;;;;;;;12.18;9.13;;;25.50;58.10;;;;;;4960368;29;20027;-75
2021/06/09 07:44:41;;;;;;;10.10;7.60;;;25.90;57.90;;;;;;4960387;28;20035;-76
2021/06/09 07:47:10;;;;;;;10.57;7.18;;;26.20;57.20;;;;;;4960024;28;20143;-75
2021/06/09 07:49:37;;;;;;;9.50;7.75;;;26.50;56.10;;;;;;4948571;28;20411;-74
2021/06/09 07:52:05;;;;;;;11.90;8.35;;;26.70;56.80;;;;;;4956862;29;20019;-75
2021/06/09 07:54:32;;;;;;;11.20;7.60;;;27.00;56.70;;;;;;4948847;28;20059;-76
2021/06/09 07:57:01;;;;;;;11.52;8.48;;;27.40;55.10;;;;;;4958702;29;20042;-75
2021/06/09 07:59:27;;;;;;;11.52;7.13;;;27.50;53.20;;;;;;4960013;28;20091;-75
2021/06/09 08:01:53;;;;;;;10.55;7.63;;;27.80;54.70;;;;;;4960128;28;20102;-76
2021/06/09 08:04:22;;;;;;;9.50;7.25;;;28.00;54.80;;;;;;4959943;28;20054;-75
2021/06/09 08:06:48;;;;;;;12.23;7.72;;;28.30;53.90;;;;;;4947072;29;20502;-75
2021/06/09 08:09:15;;;;;;;11.80;7.68;;;28.60;53.70;;;;;;4959808;28;20047;-75
2021/06/09 08:11:43;;;;;;;10.95;7.63;;;28.80;53.40;;;;;;4959803;28;20394;-75
2021/06/09 08:14:09;;;;;;;10.32;7.38;;;29.00;52.40;;;;;;4959722;28;20482;-76
2021/06/09 08:16:39;;;;;;;12.23;8.82;;;29.10;50.60;;;;;;4959920;28;20505;-76
2021/06/09 08:19:08;;;;;;;11.00;8.05;;;29.30;52.80;;;;;;4958326;29;20437;-76
2021/06/09 08:21:35;;;;;;;9.20;5.95;;;29.50;53.00;;;;;;4959507;28;20031;-76
2021/06/09 08:24:01;;;;;;;9.85;7.10;;;29.90;49.90;;;;;;4959589;28;20091;-76
2021/06/09 08:26:28;;;;;;;10.40;5.88;;;30.00;51.50;;;;;;4959551;28;20027;-76
2021/06/09 08:28:55;;;;;;;9.40;7.45;;;30.20;50.40;;;;;;4953352;28;20023;-76
2021/06/09 08:31:28;;;;;;;7.35;6.15;;;30.40;51.80;;;;;;4946835;29;20023;-76
2021/06/09 08:33:56;;;;;;;8.73;6.65;;;30.60;51.00;;;;;;4959492;28;20114;-76
2021/06/09 08:36:23;;;;;;;9.55;6.40;;;30.80;50.40;;;;;;4959619;28;20114;-75
2021/06/09 08:38:51;;;;;;;8.93;6.82;;;31.00;50.10;;;;;;4951962;28;20032;-76
2021/06/09 08:41:19;;;;;;;8.05;6.72;;;31.20;50.10;;;;;;4959140;28;20047;-76
2021/06/09 08:43:47;;;;;;;8.68;6.72;;;31.40;49.30;;;;;;4959168;28;20031;-77
2021/06/09 08:46:14;;;;;;;10.77;6.95;;;31.60;50.20;;;;;;4959533;28;20102;-76
2021/06/09 08:48:44;;;;;;;9.07;6.20;;;31.80;50.20;;;;;;4955374;29;20030;-76
2021/06/09 08:51:11;;;;;;;8.93;7.20;;;32.10;50.10;;;;;;4949642;29;20019;-77
2021/06/09 08:53:42;;;;;;;10.90;6.55;;;32.30;48.30;;;;;;4958875;28;20027;-76
2021/06/09 08:56:08;;;;;;;9.15;6.90;;;32.50;48.50;;;;;;4959248;28;20055;-77
2021/06/09 08:58:35;;;;;;;9.05;5.78;;;32.70;48.90;;;;;;4959159;29;20445;-79
2021/06/09 09:01:07;;;;;;;15.52;12.55;;;33.00;47.60;;;;;;4956058;28;20027;-78
2021/06/09 09:03:34;;;;;;;;;;;33.20;47.30;;;;;;4946268;28;20028;-79
2021/06/09 09:06:00;;;;;;;10.23;6.70;;;33.40;46.90;;;;;;4952006;29;19914;-78
2021/06/09 09:08:26;;;;;;;9.02;6.22;;;33.50;46.50;;;;;;4958866;29;20024;-79
2021/06/09 09:10:51;;;;;;;10.00;6.22;;;33.70;46.60;;;;;;4957904;28;20110;-78
2021/06/09 09:13:17;;;;;;;8.32;6.00;;;33.90;45.90;;;;;;4959109;28;20020;-75
2021/06/09 09:15:43;;;;;;;12.23;7.63;;;34.00;46.60;;;;;;4953558;28;20542;-75
2021/06/09 09:18:09;;;;;;;8.68;5.95;;;34.20;46.10;;;;;;4964399;28;20023;-75
2021/06/09 09:20:43;;;;;;;7.85;5.65;;;34.50;46.00;;;;;;4962568;28;20032;-75
2021/06/09 09:23:30;;;;;;;8.15;5.57;;;34.80;45.50;;;;;;4961821;28;20023;-74
2021/06/09 09:25:58;;;;;;;9.50;6.03;;;35.00;45.20;;;;;;4949652;28;20458;-75
2021/06/09 09:28:32;;;;;;;9.38;5.88;;;35.40;44.80;;;;;;4960632;28;20015;-75
2021/06/09 09:31:14;;;;;;;8.80;6.43;;;35.60;44.30;;;;;;4960276;29;20027;-74
2021/06/09 09:33:40;;;;;;;8.50;5.90;;;35.80;44.20;;;;;;4962621;28;20460;-75
2021/06/09 09:36:28;;;;;;;9.13;5.53;;;36.10;41.40;;;;;;4961336;28;20035;-75
2021/06/09 09:38:59;;;;;;;6.82;5.22;;;36.20;42.80;;;;;;4959184;28;20039;-78
2021/06/09 09:41:43;;;;;;;7.87;5.37;;;36.40;43.30;;;;;;4950856;28;20465;-84
2021/06/09 09:44:08;;;;;;;8.75;5.88;;;36.60;43.30;;;;;;4950826;29;20027;-82
2021/06/09 09:46:52;;;;;;;7.75;5.03;;;36.90;43.00;;;;;;4953490;29;20033;-75
2021/06/09 09:49:19;;;;;;;7.97;5.10;;;37.10;41.80;;;;;;4960485;28;20046;-77
2021/06/09 09:51:44;;;;;;;7.32;4.90;;;37.30;41.60;;;;;;4957160;28;20558;-77
2021/06/09 09:54:13;;;;;;;7.65;5.00;;;37.50;41.20;;;;;;4962393;28;20085;-80
2021/06/09 09:56:40;;;;;;;6.97;4.63;;;37.70;42.40;;;;;;4959366;28;20031;-79
2021/06/09 09:59:11;;;;;;;8.90;6.43;;;37.90;42.30;;;;;;4952580;28;20475;-80
2021/06/09 10:01:44;;;;;;;9.10;6.50;;;38.10;41.50;;;;;;4958622;29;20118;-80
2021/06/09 10:04:15;;;;;;;8.20;5.13;;;38.40;41.30;;;;;;4962280;28;20094;-75
2021/06/09 10:06:44;;;;;;;8.55;5.50;;;38.60;40.60;;;;;;4958245;28;20090;-79
2021/06/09 10:09:25;;;;;;;13.70;11.00;;;38.80;41.30;;;;;;4962093;28;20112;-81
2021/06/09 10:11:52;;;;;;;;;;;39.00;40.80;;;;;;4953435;29;20054;-81
2021/06/09 10:14:20;;;;;;;6.63;4.93;;;39.40;40.60;;;;;;4961651;28;20396;-80
2021/06/09 10:16:48;;;;;;;7.28;4.88;;;39.60;40.60;;;;;;4960530;28;20055;-81
2021/06/09 10:19:15;;;;;;;8.27;5.00;;;39.90;40.00;;;;;;4958332;28;20046;-81
2021/06/09 10:21:57;;;;;;;6.72;4.15;;;40.20;39.40;;;;;;4960092;28;20062;-82
2021/06/09 10:24:26;;;;;;;9.13;4.38;;;40.40;38.70;;;;;;4953049;28;20107;-80
2021/06/09 10:26:56;;;;;;;6.43;4.30;;;40.50;38.40;;;;;;4960684;28;20043;-82
2021/06/09 10:29:25;;;;;;;9.32;4.30;;;40.70;38.70;;;;;;4954786;28;20159;-81
2021/06/09 10:31:57;;;;;;;7.20;4.32;;;40.90;38.90;;;;;;4949294;29;20034;-82
2021/06/09 10:34:26;;;;;;;6.50;4.10;;;41.00;38.40;;;;;;4961219;28;20038;-82
2021/06/09 10:36:54;;;;;;;8.73;4.00;;;41.20;38.10;;;;;;4960349;28;20831;-80
2021/06/09 10:39:22;;;;;;;7.20;4.00;;;41.30;37.80;;;;;;4950058;28;20035;-79
2021/06/09 10:41:51;;;;;;;16.63;11.43;;;41.40;36.70;;;;;;4955750;29;20106;-78
2021/06/09 10:44:20;;;;;;;8.55;5.03;;;41.30;37.10;;;;;;4957368;29;20027;-79
2021/06/09 10:46:52;;;;;;;6.65;4.22;;;41.40;37.70;;;;;;4959601;28;20039;-81
2021/06/09 10:49:20;;;;;;;6.03;3.65;;;41.40;37.30;;;;;;4960767;28;20450;-74
2021/06/09 10:51:48;;;;;;;9.20;4.13;;;41.40;37.80;;;;;;4958590;29;20034;-83
2021/06/09 10:54:15;;;;;;;7.25;3.83;;;41.50;37.10;;;;;;4959228;28;20027;-79
2021/06/09 10:56:45;;;;;;;7.32;3.70;;;41.50;37.80;;;;;;4962821;28;20525;-75
2021/06/09 10:59:25;;;;;;;6.82;3.70;;;41.50;37.10;;;;;;4957066;28;20023;-78
2021/06/09 11:01:55;;;;;;;8.43;3.60;;;41.50;37.70;;;;;;4955272;29;20028;-78
2021/06/09 11:04:22;;;;;;;7.80;3.80;;;41.40;37.20;;;;;;4958393;28;20118;-76
2021/06/09 11:06:51;;;;;;;6.50;3.72;;;41.50;38.00;;;;;;4959007;28;20042;-77
2021/06/09 11:09:29;;;;;;;7.65;3.63;;;41.60;37.90;;;;;;4959946;28;20042;-75
2021/06/09 11:12:25;;;;;;;5.85;3.45;;;41.60;38.30;;;;;;4960439;28;20043;-75
2021/06/09 11:14:55;;;;;;;5.95;3.20;;;41.70;38.00;;;;;;4939899;29;20126;-75
2021/06/09 11:17:47;;;;;;;6.20;3.33;;;41.80;36.90;;;;;;4957893;28;20525;-75
2021/06/09 11:20:30;;;;;;;6.32;3.50;;;41.80;37.60;;;;;;4951644;28;20042;-75
2021/06/09 11:23:29;;;;;;;7.88;3.50;;;41.70;34.50;;;;;;4959563;28;20023;-75
2021/06/09 11:25:55;;;;;;;6.97;4.07;;;41.50;36.70;;;;;;4958711;29;20073;-75
2021/06/09 11:28:33;;;;;;;8.60;4.10;;;41.40;36.50;;;;;;4959925;28;20520;-74
2021/06/09 11:31:06;;;;;;;7.05;4.00;;;41.40;37.00;;;;;;4959961;28;20023;-74
2021/06/09 11:33:42;;;;;;;5.70;3.22;;;41.40;36.80;;;;;;4958298;29;20565;-74
2021/06/09 11:36:13;;;;;;;6.93;3.63;;;41.40;36.80;;;;;;4957504;28;20035;-75
2021/06/09 11:38:42;;;;;;;7.43;3.33;;;41.20;36.30;;;;;;4948132;28;20028;-73
2021/06/09 11:41:11;;;;;;;8.35;3.75;;;41.00;35.30;;;;;;4959153;28;20074;-74
2021/06/09 11:43:44;;;;;;;6.97;3.97;;;40.70;35.60;;;;;;4959133;28;20030;-75
2021/06/09 11:46:24;;;;;;;7.88;4.03;;;40.40;36.00;;;;;;4959215;28;20042;-75
2021/06/09 11:48:59;;;;;;;8.07;3.70;;;40.20;36.80;;;;;;4961220;28;20018;-74
2021/06/09 11:51:27;;;;;;;7.78;4.28;;;39.90;35.80;;;;;;4959347;28;20090;-75
2021/06/09 11:53:57;;;;;;;6.25;3.55;;;39.60;36.00;;;;;;4959154;28;20031;-74
2021/06/09 11:56:26;;;;;;;9.05;3.83;;;39.20;35.10;;;;;;4958622;28;20118;-74
2021/06/09 11:58:58;;;;;;;7.68;4.85;;;38.80;36.50;;;;;;4946491;28;20024;-75
2021/06/09 12:01:33;;;;;;;7.65;5.10;;;38.40;37.50;;;;;;4959734;28;20040;-74
2021/06/09 12:04:20;;;;;;;5.72;3.60;;;38.00;37.00;;;;;;4957168;28;20023;-74
2021/06/09 12:06:53;;;;;;;5.75;3.08;;;37.60;38.60;;;;;;4959555;28;20086;-75
2021/06/09 12:09:21;;;;;;;6.32;3.38;;;37.10;38.20;;;;;;4959974;28;20020;-74
2021/06/09 12:11:56;;;;;;;6.82;3.58;;;36.70;38.60;;;;;;4959901;28;20027;-74
2021/06/09 12:14:27;;;;;;;7.45;3.80;;;36.40;38.80;;;;;;4955014;28;20030;-74
2021/06/09 12:16:54;;;;;;;;;;;36.10;39.50;;;;;;4944582;29;20037;-74
2021/06/09 12:19:23;;;;;;;7.55;3.58;;;35.70;39.80;;;;;;4951304;28;19910;-74
2021/06/09 12:21:52;;;;;;;7.30;3.88;;;35.30;39.00;;;;;;4949402;28;20027;-74
2021/06/09 12:24:18;;;;;;;4.85;3.67;;;35.00;39.30;;;;;;4948612;29;20390;-73
2021/06/09 12:26:58;;;;;;;6.68;3.42;;;34.70;38.90;;;;;;4945137;28;20031;-73
2021/06/09 12:29:27;;;;;;;7.38;4.05;;;34.30;38.90;;;;;;4951738;28;20102;-72
2021/06/09 12:31:55;;;;;;;7.38;4.07;;;33.90;38.30;;;;;;4947062;28;20087;-73
2021/06/09 12:34:27;;;;;;;5.78;3.55;;;33.60;39.20;;;;;;4959488;28;20075;-72
2021/06/09 12:37:02;;;;;;;10.52;4.43;;;33.30;38.30;;;;;;4958409;28;20070;-73
2021/06/09 12:39:29;;;;;;;6.40;3.58;;;32.90;39.10;;;;;;4950261;28;20505;-73
2021/06/09 12:41:55;;;;;;;6.10;3.65;;;32.70;39.90;;;;;;4958213;28;20024;-73
2021/06/09 12:44:21;;;;;;;8.50;3.60;;;32.50;39.80;;;;;;4959273;28;20034;-73
2021/06/09 12:46:58;;;;;;;7.15;4.13;;;32.40;40.00;;;;;;4956036;29;20123;-73
2021/06/09 12:49:33;;;;;;;5.45;3.55;;;32.30;40.30;;;;;;4947769;29;20075;-73
2021/06/09 12:52:04;;;;;;;7.32;4.20;;;32.10;40.40;;;;;;4945936;29;20027;-73